sensor_id;sensor_type;location;lat;lon;timestamp;temperature;humidity
53146;DHT22;39042;53.150;5.898;2023-04-09T00:01:54;8.30;99.90
53146;DHT22;39042;53.150;5.898;2023-04-09T00:04:20;8.30;99.90
53146;DHT22;39042;53.150;5.898;2023-04-09T00:06:47;8.30;99.90
53146;DHT22;39042;53.150;5.898;2023-04-09T00:09:12;8.30;99.90
53146;DHT22;39042;53.150;5.898;2023-04-09T00:11:38;8.30;99.90
53146;DHT22;39042;53.150;5.898;2023-04-09T00:14:04;8.30;99.90
53146;DHT22;39042;53.150;5.898;2023-04-09T00:16:30;8.40;99.90
53146;DHT22;39042;53.150;5.898;2023-04-09T00:18:55;8.40;99.90
53146;DHT22;39042;53.150;5.898;2023-04-09T00:21:21;8.40;99.90
53146;DHT22;39042;53.150;5.898;2023-04-09T00:23:47;8.40;99.90
53146;DHT22;39042;53.150;5.898;2023-04-09T00:26:13;8.40;99.90
53146;DHT22;39042;53.150;5.898;2023-04-09T00:28:39;8.50;99.90
53146;DHT22;39042;53.150;5.898;2023-04-09T00:31:05;8.50;99.90
53146;DHT22;39042;53.150;5.898;2023-04-09T00:33:31;8.50;99.90
53146;DHT22;39042;53.150;5.898;2023-04-09T00:35:57;8.50;99.90
53146;DHT22;39042;53.150;5.898;2023-04-09T00:38:23;8.50;99.90
53146;DHT22;39042;53.150;5.898;2023-04-09T00:40:49;8.50;99.90
53146;DHT22;39042;53.150;5.898;2023-04-09T00:43:16;8.50;99.90
53146;DHT22;39042;53.150;5.898;2023-04-09T00:45:43;8.50;99.90
53146;DHT22;39042;53.150;5.898;2023-04-09T00:48:09;8.60;99.90
53146;DHT22;39042;53.150;5.898;2023-04-09T00:50:35;8.60;99.90
53146;DHT22;39042;53.150;5.898;2023-04-09T00:53:01;8.60;99.90
53146;DHT22;39042;53.150;5.898;2023-04-09T00:55:27;8.60;99.90
53146;DHT22;39042;53.150;5.898;2023-04-09T00:57:53;8.60;99.90
53146;DHT22;39042;53.150;5.898;2023-04-09T01:00:19;8.60;99.90
53146;DHT22;39042;53.150;5.898;2023-04-09T01:02:45;8.60;99.90
53146;DHT22;39042;53.150;5.898;2023-04-09T01:05:12;8.70;99.90
53146;DHT22;39042;53.150;5.898;2023-04-09T01:08:03;8.70;99.90
53146;DHT22;39042;53.150;5.898;2023-04-09T01:10:34;8.70;99.90
53146;DHT22;39042;53.150;5.898;2023-04-09T01:13:15;8.70;99.90
53146;DHT22;39042;53.150;5.898;2023-04-09T01:15:55;8.70;99.90
53146;DHT22;39042;53.150;5.898;2023-04-09T01:18:42;8.70;99.90
53146;DHT22;39042;53.150;5.898;2023-04-09T01:21:12;8.70;99.90
53146;DHT22;39042;53.150;5.898;2023-04-09T01:27:04;8.80;99.90
53146;DHT22;39042;53.150;5.898;2023-04-09T01:29:48;8.70;99.90
53146;DHT22;39042;53.150;5.898;2023-04-09T01:32:17;8.80;99.90
53146;DHT22;39042;53.150;5.898;2023-04-09T01:34:45;8.80;99.90
53146;DHT22;39042;53.150;5.898;2023-04-09T01:37:12;8.80;99.90
53146;DHT22;39042;53.150;5.898;2023-04-09T01:39:40;8.80;99.90
53146;DHT22;39042;53.150;5.898;2023-04-09T01:42:06;8.80;99.90
53146;DHT22;39042;53.150;5.898;2023-04-09T01:44:39;8.80;99.90
53146;DHT22;39042;53.150;5.898;2023-04-09T01:47:07;8.80;99.90
53146;DHT22;39042;53.150;5.898;2023-04-09T01:49:34;8.80;99.90
53146;DHT22;39042;53.150;5.898;2023-04-09T01:52:00;8.80;99.90
53146;DHT22;39042;53.150;5.898;2023-04-09T01:54:26;8.80;99.90
53146;DHT22;39042;53.150;5.898;2023-04-09T01:56:52;8.80;99.90
53146;DHT22;39042;53.150;5.898;2023-04-09T01:59:18;8.80;99.90
53146;DHT22;39042;53.150;5.898;2023-04-09T02:01:52;8.80;99.90
53146;DHT22;39042;53.150;5.898;2023-04-09T02:04:23;8.80;99.90
53146;DHT22;39042;53.150;5.898;2023-04-09T02:09:30;8.80;99.90
53146;DHT22;39042;53.150;5.898;2023-04-09T02:12:03;8.80;99.90
53146;DHT22;39042;53.150;5.898;2023-04-09T02:14:31;8.80;99.90
53146;DHT22;39042;53.150;5.898;2023-04-09T02:16:58;8.70;99.90
53146;DHT22;39042;53.150;5.898;2023-04-09T02:19:24;8.70;99.90
53146;DHT22;39042;53.150;5.898;2023-04-09T02:21:49;8.70;99.90
53146;DHT22;39042;53.150;5.898;2023-04-09T02:24:15;8.70;99.90
53146;DHT22;39042;53.150;5.898;2023-04-09T02:26:41;8.60;99.90
53146;DHT22;39042;53.150;5.898;2023-04-09T02:29:07;8.60;99.90
53146;DHT22;39042;53.150;5.898;2023-04-09T02:31:33;8.60;99.90
53146;DHT22;39042;53.150;5.898;2023-04-09T02:33:59;8.60;99.90
53146;DHT22;39042;53.150;5.898;2023-04-09T02:36:24;8.50;99.90
53146;DHT22;39042;53.150;5.898;2023-04-09T02:38:52;8.50;99.90
53146;DHT22;39042;53.150;5.898;2023-04-09T02:41:18;8.50;99.90
53146;DHT22;39042;53.150;5.898;2023-04-09T02:43:44;8.50;99.90
53146;DHT22;39042;53.150;5.898;2023-04-09T02:46:10;8.50;99.90
53146;DHT22;39042;53.150;5.898;2023-04-09T02:48:35;8.50;99.90
53146;DHT22;39042;53.150;5.898;2023-04-09T02:51:04;8.50;99.90
53146;DHT22;39042;53.150;5.898;2023-04-09T02:53:30;8.40;99.90
53146;DHT22;39042;53.150;5.898;2023-04-09T02:55:56;8.50;99.90
53146;DHT22;39042;53.150;5.898;2023-04-09T02:58:22;8.40;99.90
53146;DHT22;39042;53.150;5.898;2023-04-09T03:00:48;8.40;99.90
53146;DHT22;39042;53.150;5.898;2023-04-09T03:03:14;8.40;99.90
53146;DHT22;39042;53.150;5.898;2023-04-09T03:05:40;8.40;99.90
53146;DHT22;39042;53.150;5.898;2023-04-09T03:08:06;8.40;99.90
53146;DHT22;39042;53.150;5.898;2023-04-09T03:10:32;8.30;99.90
53146;DHT22;39042;53.150;5.898;2023-04-09T03:12:58;8.30;99.90
53146;DHT22;39042;53.150;5.898;2023-04-09T03:15:24;8.30;99.90
53146;DHT22;39042;53.150;5.898;2023-04-09T03:17:50;8.30;99.90
53146;DHT22;39042;53.150;5.898;2023-04-09T03:20:16;8.30;99.90
53146;DHT22;39042;53.150;5.898;2023-04-09T03:22:43;8.30;99.90
53146;DHT22;39042;53.150;5.898;2023-04-09T03:25:20;8.20;99.90
53146;DHT22;39042;53.150;5.898;2023-04-09T03:27:51;8.20;99.90
53146;DHT22;39042;53.150;5.898;2023-04-09T03:30:25;8.10;99.90
53146;DHT22;39042;53.150;5.898;2023-04-09T03:32:51;8.20;99.90
53146;DHT22;39042;53.150;5.898;2023-04-09T03:35:20;8.10;99.90
53146;DHT22;39042;53.150;5.898;2023-04-09T03:37:46;8.10;99.90
53146;DHT22;39042;53.150;5.898;2023-04-09T03:40:16;8.10;99.90
53146;DHT22;39042;53.150;5.898;2023-04-09T03:42:42;8.10;99.90
53146;DHT22;39042;53.150;5.898;2023-04-09T03:45:11;8.10;99.90
53146;DHT22;39042;53.150;5.898;2023-04-09T03:47:41;8.10;99.90
53146;DHT22;39042;53.150;5.898;2023-04-09T03:50:08;8.10;99.90
53146;DHT22;39042;53.150;5.898;2023-04-09T03:52:44;8.10;99.90
53146;DHT22;39042;53.150;5.898;2023-04-09T03:55:10;8.10;99.90
53146;DHT22;39042;53.150;5.898;2023-04-09T03:57:36;8.10;99.90
53146;DHT22;39042;53.150;5.898;2023-04-09T04:00:05;8.00;99.90
53146;DHT22;39042;53.150;5.898;2023-04-09T04:02:49;8.10;99.90
53146;DHT22;39042;53.150;5.898;2023-04-09T04:05:21;8.10;99.90
53146;DHT22;39042;53.150;5.898;2023-04-09T04:07:48;8.10;99.90
53146;DHT22;39042;53.150;5.898;2023-04-09T04:10:19;8.10;99.90
53146;DHT22;39042;53.150;5.898;2023-04-09T04:12:46;8.10;99.90
53146;DHT22;39042;53.150;5.898;2023-04-09T04:15:40;8.10;99.90
53146;DHT22;39042;53.150;5.898;2023-04-09T04:18:09;8.10;99.90
53146;DHT22;39042;53.150;5.898;2023-04-09T04:20:40;8.10;99.90
53146;DHT22;39042;53.150;5.898;2023-04-09T04:23:11;8.10;99.90
53146;DHT22;39042;53.150;5.898;2023-04-09T04:25:44;8.10;99.90
53146;DHT22;39042;53.150;5.898;2023-04-09T04:28:13;8.10;99.90
53146;DHT22;39042;53.150;5.898;2023-04-09T04:30:41;8.10;99.90
53146;DHT22;39042;53.150;5.898;2023-04-09T04:33:07;8.00;99.90
53146;DHT22;39042;53.150;5.898;2023-04-09T04:35:48;8.00;99.90
53146;DHT22;39042;53.150;5.898;2023-04-09T04:38:35;8.10;99.90
53146;DHT22;39042;53.150;5.898;2023-04-09T04:41:05;8.00;99.90
53146;DHT22;39042;53.150;5.898;2023-04-09T04:43:34;8.10;99.90
53146;DHT22;39042;53.150;5.898;2023-04-09T04:46:00;8.00;99.90
53146;DHT22;39042;53.150;5.898;2023-04-09T04:48:28;8.00;99.90
53146;DHT22;39042;53.150;5.898;2023-04-09T04:50:57;8.00;99.90
53146;DHT22;39042;53.150;5.898;2023-04-09T04:53:24;8.00;99.90
53146;DHT22;39042;53.150;5.898;2023-04-09T04:55:52;8.00;99.90
53146;DHT22;39042;53.150;5.898;2023-04-09T04:58:23;8.00;99.90
53146;DHT22;39042;53.150;5.898;2023-04-09T05:00:54;8.00;99.90
53146;DHT22;39042;53.150;5.898;2023-04-09T05:03:20;8.00;99.90
53146;DHT22;39042;53.150;5.898;2023-04-09T05:05:55;8.00;99.90
53146;DHT22;39042;53.150;5.898;2023-04-09T05:08:22;8.00;99.90
53146;DHT22;39042;53.150;5.898;2023-04-09T05:10:50;8.00;99.90
53146;DHT22;39042;53.150;5.898;2023-04-09T05:13:18;8.00;99.90
53146;DHT22;39042;53.150;5.898;2023-04-09T05:15:44;8.00;99.90
53146;DHT22;39042;53.150;5.898;2023-04-09T05:18:10;8.00;99.90
53146;DHT22;39042;53.150;5.898;2023-04-09T05:20:36;8.00;99.90
53146;DHT22;39042;53.150;5.898;2023-04-09T05:23:06;8.00;99.90
53146;DHT22;39042;53.150;5.898;2023-04-09T05:25:38;8.00;99.90
53146;DHT22;39042;53.150;5.898;2023-04-09T05:28:07;8.10;99.90
53146;DHT22;39042;53.150;5.898;2023-04-09T05:30:36;8.10;99.90
53146;DHT22;39042;53.150;5.898;2023-04-09T05:33:03;8.10;99.90
53146;DHT22;39042;53.150;5.898;2023-04-09T05:35:30;8.00;99.90
53146;DHT22;39042;53.150;5.898;2023-04-09T05:37:56;8.00;99.90
53146;DHT22;39042;53.150;5.898;2023-04-09T05:40:22;8.00;99.90
53146;DHT22;39042;53.150;5.898;2023-04-09T05:42:49;8.00;99.90
53146;DHT22;39042;53.150;5.898;2023-04-09T05:45:22;8.00;99.90
53146;DHT22;39042;53.150;5.898;2023-04-09T05:47:51;8.00;99.90
53146;DHT22;39042;53.150;5.898;2023-04-09T05:50:19;8.00;99.90
53146;DHT22;39042;53.150;5.898;2023-04-09T05:52:47;8.00;99.90
53146;DHT22;39042;53.150;5.898;2023-04-09T05:55:15;8.00;99.90
53146;DHT22;39042;53.150;5.898;2023-04-09T05:57:45;8.00;99.90
53146;DHT22;39042;53.150;5.898;2023-04-09T06:00:12;8.00;99.90
53146;DHT22;39042;53.150;5.898;2023-04-09T06:02:46;8.00;99.90
53146;DHT22;39042;53.150;5.898;2023-04-09T06:05:12;8.10;99.90
53146;DHT22;39042;53.150;5.898;2023-04-09T06:07:38;8.00;99.90
53146;DHT22;39042;53.150;5.898;2023-04-09T06:10:04;8.10;99.90
53146;DHT22;39042;53.150;5.898;2023-04-09T06:12:30;8.10;99.90
53146;DHT22;39042;53.150;5.898;2023-04-09T06:14:56;8.10;99.90
53146;DHT22;39042;53.150;5.898;2023-04-09T06:17:21;8.10;99.90
53146;DHT22;39042;53.150;5.898;2023-04-09T06:19:47;8.10;99.90
53146;DHT22;39042;53.150;5.898;2023-04-09T06:22:13;8.20;99.90
53146;DHT22;39042;53.150;5.898;2023-04-09T06:24:39;8.20;99.90
53146;DHT22;39042;53.150;5.898;2023-04-09T06:27:04;8.20;99.90
53146;DHT22;39042;53.150;5.898;2023-04-09T06:29:30;8.20;99.90
53146;DHT22;39042;53.150;5.898;2023-04-09T06:31:56;8.20;99.90
53146;DHT22;39042;53.150;5.898;2023-04-09T06:34:22;8.30;99.90
53146;DHT22;39042;53.150;5.898;2023-04-09T06:36:48;8.30;99.90
53146;DHT22;39042;53.150;5.898;2023-04-09T06:39:13;8.30;99.90
53146;DHT22;39042;53.150;5.898;2023-04-09T06:41:39;8.30;99.90
53146;DHT22;39042;53.150;5.898;2023-04-09T06:44:17;8.30;99.90
53146;DHT22;39042;53.150;5.898;2023-04-09T06:46:44;8.40;99.90
53146;DHT22;39042;53.150;5.898;2023-04-09T06:49:10;8.40;99.90
53146;DHT22;39042;53.150;5.898;2023-04-09T06:51:36;8.40;99.90
53146;DHT22;39042;53.150;5.898;2023-04-09T06:54:02;8.40;99.90
53146;DHT22;39042;53.150;5.898;2023-04-09T06:56:28;8.50;99.90
53146;DHT22;39042;53.150;5.898;2023-04-09T06:58:53;8.50;99.90
53146;DHT22;39042;53.150;5.898;2023-04-09T07:01:19;8.50;99.90
53146;DHT22;39042;53.150;5.898;2023-04-09T07:03:45;8.50;99.90
53146;DHT22;39042;53.150;5.898;2023-04-09T07:06:11;8.50;99.90
53146;DHT22;39042;53.150;5.898;2023-04-09T07:08:37;8.50;99.90
53146;DHT22;39042;53.150;5.898;2023-04-09T07:11:03;8.50;99.90
53146;DHT22;39042;53.150;5.898;2023-04-09T07:13:28;8.50;99.90
53146;DHT22;39042;53.150;5.898;2023-04-09T07:15:55;8.50;99.90
53146;DHT22;39042;53.150;5.898;2023-04-09T07:18:21;8.50;99.90
53146;DHT22;39042;53.150;5.898;2023-04-09T07:20:47;8.50;99.90
53146;DHT22;39042;53.150;5.898;2023-04-09T07:23:12;8.50;99.90
53146;DHT22;39042;53.150;5.898;2023-04-09T07:25:38;8.50;99.90
53146;DHT22;39042;53.150;5.898;2023-04-09T07:28:04;8.50;99.90
53146;DHT22;39042;53.150;5.898;2023-04-09T07:30:30;8.50;99.90
53146;DHT22;39042;53.150;5.898;2023-04-09T07:32:56;8.50;99.90
53146;DHT22;39042;53.150;5.898;2023-04-09T07:35:22;8.50;99.90
53146;DHT22;39042;53.150;5.898;2023-04-09T07:37:47;8.60;99.90
53146;DHT22;39042;53.150;5.898;2023-04-09T07:40:13;8.60;99.90
53146;DHT22;39042;53.150;5.898;2023-04-09T07:42:39;8.60;99.90
53146;DHT22;39042;53.150;5.898;2023-04-09T07:45:05;8.60;99.90
53146;DHT22;39042;53.150;5.898;2023-04-09T07:47:31;8.60;99.90
53146;DHT22;39042;53.150;5.898;2023-04-09T07:49:57;8.60;99.90
53146;DHT22;39042;53.150;5.898;2023-04-09T07:52:23;8.60;99.90
53146;DHT22;39042;53.150;5.898;2023-04-09T07:54:49;8.70;99.90
53146;DHT22;39042;53.150;5.898;2023-04-09T07:57:15;8.70;99.90
53146;DHT22;39042;53.150;5.898;2023-04-09T07:59:40;8.70;99.90
53146;DHT22;39042;53.150;5.898;2023-04-09T08:02:06;8.70;99.90
53146;DHT22;39042;53.150;5.898;2023-04-09T08:04:32;8.70;99.90
53146;DHT22;39042;53.150;5.898;2023-04-09T08:06:58;8.70;99.90
53146;DHT22;39042;53.150;5.898;2023-04-09T08:09:24;8.80;99.90
53146;DHT22;39042;53.150;5.898;2023-04-09T08:11:50;8.80;99.90
53146;DHT22;39042;53.150;5.898;2023-04-09T08:14:17;8.80;99.90
53146;DHT22;39042;53.150;5.898;2023-04-09T08:16:44;8.80;99.90
53146;DHT22;39042;53.150;5.898;2023-04-09T08:19:11;8.80;99.90
53146;DHT22;39042;53.150;5.898;2023-04-09T08:21:38;8.80;99.90
53146;DHT22;39042;53.150;5.898;2023-04-09T08:24:05;8.80;99.90
53146;DHT22;39042;53.150;5.898;2023-04-09T08:26:31;8.90;99.90
53146;DHT22;39042;53.150;5.898;2023-04-09T08:28:57;9.00;99.90
53146;DHT22;39042;53.150;5.898;2023-04-09T08:31:23;9.00;99.90
53146;DHT22;39042;53.150;5.898;2023-04-09T08:33:49;9.00;99.90
53146;DHT22;39042;53.150;5.898;2023-04-09T08:36:15;9.10;99.90
53146;DHT22;39042;53.150;5.898;2023-04-09T08:38:41;9.10;99.90
53146;DHT22;39042;53.150;5.898;2023-04-09T08:41:07;9.10;99.90
53146;DHT22;39042;53.150;5.898;2023-04-09T08:43:33;9.20;99.90
53146;DHT22;39042;53.150;5.898;2023-04-09T08:46:00;9.20;99.90
53146;DHT22;39042;53.150;5.898;2023-04-09T08:48:28;9.30;99.90
53146;DHT22;39042;53.150;5.898;2023-04-09T08:50:54;9.30;99.90
53146;DHT22;39042;53.150;5.898;2023-04-09T08:53:20;9.30;99.90
53146;DHT22;39042;53.150;5.898;2023-04-09T08:55:47;9.40;99.90
53146;DHT22;39042;53.150;5.898;2023-04-09T08:58:13;9.30;99.90
53146;DHT22;39042;53.150;5.898;2023-04-09T09:00:39;9.40;99.90
53146;DHT22;39042;53.150;5.898;2023-04-09T09:03:07;9.40;99.90
53146;DHT22;39042;53.150;5.898;2023-04-09T09:05:43;9.30;99.90
53146;DHT22;39042;53.150;5.898;2023-04-09T09:08:12;9.40;99.90
53146;DHT22;39042;53.150;5.898;2023-04-09T09:10:42;9.40;99.90
53146;DHT22;39042;53.150;5.898;2023-04-09T09:13:27;9.50;99.90
53146;DHT22;39042;53.150;5.898;2023-04-09T09:15:54;9.50;99.90
53146;DHT22;39042;53.150;5.898;2023-04-09T09:18:43;9.60;99.90
53146;DHT22;39042;53.150;5.898;2023-04-09T09:21:13;9.60;99.90
53146;DHT22;39042;53.150;5.898;2023-04-09T09:23:39;9.60;99.90
53146;DHT22;39042;53.150;5.898;2023-04-09T09:26:22;9.50;99.90
53146;DHT22;39042;53.150;5.898;2023-04-09T09:28:50;9.50;99.90
53146;DHT22;39042;53.150;5.898;2023-04-09T09:31:18;9.50;99.90
53146;DHT22;39042;53.150;5.898;2023-04-09T09:33:44;9.50;99.90
53146;DHT22;39042;53.150;5.898;2023-04-09T09:36:11;9.60;99.90
53146;DHT22;39042;53.150;5.898;2023-04-09T09:38:57;9.70;99.90
53146;DHT22;39042;53.150;5.898;2023-04-09T09:41:23;9.80;99.90
53146;DHT22;39042;53.150;5.898;2023-04-09T09:43:50;9.80;99.90
53146;DHT22;39042;53.150;5.898;2023-04-09T09:46:16;9.80;99.90
53146;DHT22;39042;53.150;5.898;2023-04-09T09:48:43;9.80;99.90
53146;DHT22;39042;53.150;5.898;2023-04-09T09:51:12;9.90;99.90
53146;DHT22;39042;53.150;5.898;2023-04-09T09:53:39;9.90;99.90
53146;DHT22;39042;53.150;5.898;2023-04-09T09:56:08;10.00;99.90
53146;DHT22;39042;53.150;5.898;2023-04-09T09:58:40;9.90;99.90
53146;DHT22;39042;53.150;5.898;2023-04-09T10:01:12;10.00;99.90
53146;DHT22;39042;53.150;5.898;2023-04-09T10:03:39;10.10;99.90
53146;DHT22;39042;53.150;5.898;2023-04-09T10:06:07;10.30;99.90
53146;DHT22;39042;53.150;5.898;2023-04-09T10:08:36;10.30;99.90
53146;DHT22;39042;53.150;5.898;2023-04-09T10:11:04;10.50;99.90
53146;DHT22;39042;53.150;5.898;2023-04-09T10:13:44;10.50;99.90
53146;DHT22;39042;53.150;5.898;2023-04-09T10:16:12;10.50;99.90
53146;DHT22;39042;53.150;5.898;2023-04-09T10:18:39;10.50;99.90
53146;DHT22;39042;53.150;5.898;2023-04-09T10:23:58;10.60;99.90
53146;DHT22;39042;53.150;5.898;2023-04-09T10:26:25;10.60;99.90
53146;DHT22;39042;53.150;5.898;2023-04-09T10:29:15;10.70;99.90
53146;DHT22;39042;53.150;5.898;2023-04-09T10:31:53;10.90;99.90
53146;DHT22;39042;53.150;5.898;2023-04-09T10:34:26;11.00;99.90
53146;DHT22;39042;53.150;5.898;2023-04-09T10:36:55;11.20;99.90
53146;DHT22;39042;53.150;5.898;2023-04-09T10:39:30;11.30;99.90
53146;DHT22;39042;53.150;5.898;2023-04-09T10:42:00;11.50;99.90
53146;DHT22;39042;53.150;5.898;2023-04-09T10:44:31;11.60;99.90
53146;DHT22;39042;53.150;5.898;2023-04-09T10:47:00;11.60;99.90
53146;DHT22;39042;53.150;5.898;2023-04-09T10:49:38;11.80;99.90
53146;DHT22;39042;53.150;5.898;2023-04-09T10:52:08;12.00;99.90
53146;DHT22;39042;53.150;5.898;2023-04-09T10:57:12;12.30;99.90
53146;DHT22;39042;53.150;5.898;2023-04-09T10:59:43;12.40;99.90
53146;DHT22;39042;53.150;5.898;2023-04-09T11:05:20;12.70;99.90
53146;DHT22;39042;53.150;5.898;2023-04-09T11:07:56;12.80;99.90
53146;DHT22;39042;53.150;5.898;2023-04-09T11:10:23;12.90;99.90
53146;DHT22;39042;53.150;5.898;2023-04-09T11:12:49;13.00;99.90
53146;DHT22;39042;53.150;5.898;2023-04-09T11:15:16;13.20;99.90
53146;DHT22;39042;53.150;5.898;2023-04-09T11:17:43;13.30;99.90
53146;DHT22;39042;53.150;5.898;2023-04-09T11:20:09;13.40;99.90
53146;DHT22;39042;53.150;5.898;2023-04-09T11:22:37;13.40;99.90
53146;DHT22;39042;53.150;5.898;2023-04-09T11:25:03;13.50;99.90
53146;DHT22;39042;53.150;5.898;2023-04-09T11:27:29;13.50;99.90
53146;DHT22;39042;53.150;5.898;2023-04-09T11:29:55;13.40;99.90
53146;DHT22;39042;53.150;5.898;2023-04-09T11:32:21;13.40;99.90
53146;DHT22;39042;53.150;5.898;2023-04-09T11:34:47;13.40;99.90
53146;DHT22;39042;53.150;5.898;2023-04-09T11:37:15;13.40;99.90
53146;DHT22;39042;53.150;5.898;2023-04-09T11:39:45;13.40;99.90
53146;DHT22;39042;53.150;5.898;2023-04-09T11:42:14;13.40;99.90
53146;DHT22;39042;53.150;5.898;2023-04-09T11:44:40;13.30;99.90
53146;DHT22;39042;53.150;5.898;2023-04-09T11:47:08;13.20;99.90
53146;DHT22;39042;53.150;5.898;2023-04-09T11:54:05;13.30;99.90
53146;DHT22;39042;53.150;5.898;2023-04-09T11:56:31;13.40;99.90
53146;DHT22;39042;53.150;5.898;2023-04-09T11:59:00;13.40;99.90
53146;DHT22;39042;53.150;5.898;2023-04-09T12:01:32;13.50;99.90
53146;DHT22;39042;53.150;5.898;2023-04-09T12:03:59;13.50;99.90
53146;DHT22;39042;53.150;5.898;2023-04-09T12:06:26;13.50;99.90
53146;DHT22;39042;53.150;5.898;2023-04-09T12:08:57;13.50;99.90
53146;DHT22;39042;53.150;5.898;2023-04-09T12:11:27;13.50;99.90
53146;DHT22;39042;53.150;5.898;2023-04-09T12:14:04;13.50;99.90
53146;DHT22;39042;53.150;5.898;2023-04-09T12:16:31;13.60;99.90
